Stearleyville, Indiana
Current Conditions -  °F | °C
As of 7:00 AM on Wednesday 26 Nov 2014 (Local Time) from KHUF Reporting Station
Broken Clouds Broken Clouds  
Wind Chill: 15°   Ceiling: 1100
Heat Index: 23°   Visibility: 10mi
Dew Point: 20°   Wind: 7mph
Humidity: 88%   Direction: 100°E
Pressure: 30.14"   Gusts: NA
Location:  39.5158°N, 87.1262°W
Report Text: KHUF 261200Z 10006KT 10SM BKN011 M05/M07 A3014 RMK AO2 T10501067
Loading
Personal Weather Stations






























Interactive Weather Map New forecast layout! Learn more

10-Day Weather Forecast

Advertisements
Track Severe Weather on mobile